sensor_id;sensor_type;location;lat;lon;timestamp;temperature;humidity
41904;DHT22;27586;51.124;4.182;2023-06-04T00:00:46;15.80;92.60
41904;DHT22;27586;51.124;4.182;2023-06-04T00:03:12;15.80;93.20
41904;DHT22;27586;51.124;4.182;2023-06-04T00:05:38;15.70;93.60
41904;DHT22;27586;51.124;4.182;2023-06-04T00:08:04;15.70;94.20
41904;DHT22;27586;51.124;4.182;2023-06-04T00:10:29;15.70;94.50
41904;DHT22;27586;51.124;4.182;2023-06-04T00:12:56;15.80;94.80
41904;DHT22;27586;51.124;4.182;2023-06-04T00:15:22;15.70;95.10
41904;DHT22;27586;51.124;4.182;2023-06-04T00:17:48;15.80;95.50
41904;DHT22;27586;51.124;4.182;2023-06-04T00:20:14;15.70;95.40
41904;DHT22;27586;51.124;4.182;2023-06-04T00:22:39;15.60;95.80
41904;DHT22;27586;51.124;4.182;2023-06-04T00:25:08;15.60;95.80
41904;DHT22;27586;51.124;4.182;2023-06-04T00:27:34;15.60;96.20
41904;DHT22;27586;51.124;4.182;2023-06-04T00:29:59;15.50;96.70
41904;DHT22;27586;51.124;4.182;2023-06-04T00:32:25;15.50;96.50
41904;DHT22;27586;51.124;4.182;2023-06-04T00:34:52;15.40;96.80
41904;DHT22;27586;51.124;4.182;2023-06-04T00:37:18;15.50;97.20
41904;DHT22;27586;51.124;4.182;2023-06-04T00:39:44;15.50;97.40
41904;DHT22;27586;51.124;4.182;2023-06-04T00:42:09;15.50;97.30
41904;DHT22;27586;51.124;4.182;2023-06-04T00:44:37;15.50;98.00
41904;DHT22;27586;51.124;4.182;2023-06-04T00:47:08;15.40;98.20
41904;DHT22;27586;51.124;4.182;2023-06-04T00:49:34;15.40;98.50
41904;DHT22;27586;51.124;4.182;2023-06-04T00:52:00;15.20;98.10
41904;DHT22;27586;51.124;4.182;2023-06-04T00:54:26;15.20;98.70
41904;DHT22;27586;51.124;4.182;2023-06-04T00:56:51;15.20;98.30
41904;DHT22;27586;51.124;4.182;2023-06-04T00:59:17;15.20;98.90
41904;DHT22;27586;51.124;4.182;2023-06-04T01:01:56;15.20;98.50
41904;DHT22;27586;51.124;4.182;2023-06-04T01:05:02;15.10;98.80
41904;DHT22;27586;51.124;4.182;2023-06-04T01:07:30;15.20;99.30
41904;DHT22;27586;51.124;4.182;2023-06-04T01:10:03;15.10;99.70
41904;DHT22;27586;51.124;4.182;2023-06-04T01:12:29;15.00;99.70
41904;DHT22;27586;51.124;4.182;2023-06-04T01:14:54;15.00;99.90
41904;DHT22;27586;51.124;4.182;2023-06-04T01:17:32;15.00;99.90
41904;DHT22;27586;51.124;4.182;2023-06-04T01:25:41;15.00;99.90
41904;DHT22;27586;51.124;4.182;2023-06-04T01:28:10;14.90;99.90
41904;DHT22;27586;51.124;4.182;2023-06-04T01:30:38;15.00;99.90
41904;DHT22;27586;51.124;4.182;2023-06-04T01:33:11;14.90;99.90
41904;DHT22;27586;51.124;4.182;2023-06-04T01:35:38;14.90;99.90
41904;DHT22;27586;51.124;4.182;2023-06-04T01:38:03;14.90;99.90
41904;DHT22;27586;51.124;4.182;2023-06-04T01:40:29;14.80;99.90
41904;DHT22;27586;51.124;4.182;2023-06-04T01:42:55;14.70;99.90
41904;DHT22;27586;51.124;4.182;2023-06-04T01:45:22;14.80;99.90
41904;DHT22;27586;51.124;4.182;2023-06-04T01:47:48;14.80;99.90
41904;DHT22;27586;51.124;4.182;2023-06-04T01:50:15;14.80;99.90
41904;DHT22;27586;51.124;4.182;2023-06-04T01:52:41;14.70;99.90
41904;DHT22;27586;51.124;4.182;2023-06-04T01:55:08;14.80;99.90
41904;DHT22;27586;51.124;4.182;2023-06-04T01:57:34;14.80;99.90
41904;DHT22;27586;51.124;4.182;2023-06-04T02:00:07;14.80;99.90
41904;DHT22;27586;51.124;4.182;2023-06-04T02:02:35;14.70;99.90
41904;DHT22;27586;51.124;4.182;2023-06-04T02:05:07;14.70;99.90
41904;DHT22;27586;51.124;4.182;2023-06-04T02:07:36;14.70;99.90
41904;DHT22;27586;51.124;4.182;2023-06-04T02:10:07;14.70;99.90
41904;DHT22;27586;51.124;4.182;2023-06-04T02:12:36;14.60;99.90
41904;DHT22;27586;51.124;4.182;2023-06-04T02:15:02;14.70;99.90
41904;DHT22;27586;51.124;4.182;2023-06-04T02:17:28;14.60;99.90
41904;DHT22;27586;51.124;4.182;2023-06-04T02:19:56;14.60;99.90
41904;DHT22;27586;51.124;4.182;2023-06-04T02:22:22;14.50;99.90
41904;DHT22;27586;51.124;4.182;2023-06-04T02:24:48;14.50;99.90
41904;DHT22;27586;51.124;4.182;2023-06-04T02:27:14;14.40;99.90
41904;DHT22;27586;51.124;4.182;2023-06-04T02:29:40;14.40;99.90
41904;DHT22;27586;51.124;4.182;2023-06-04T02:32:06;14.40;99.90
41904;DHT22;27586;51.124;4.182;2023-06-04T02:34:33;14.30;99.90
41904;DHT22;27586;51.124;4.182;2023-06-04T02:37:02;14.30;99.90
41904;DHT22;27586;51.124;4.182;2023-06-04T02:39:28;14.30;99.90
41904;DHT22;27586;51.124;4.182;2023-06-04T02:41:54;14.30;99.90
41904;DHT22;27586;51.124;4.182;2023-06-04T02:44:20;14.30;99.90
41904;DHT22;27586;51.124;4.182;2023-06-04T02:46:46;14.30;99.90
41904;DHT22;27586;51.124;4.182;2023-06-04T02:49:12;14.30;99.90
41904;DHT22;27586;51.124;4.182;2023-06-04T02:51:42;14.20;99.90
41904;DHT22;27586;51.124;4.182;2023-06-04T02:54:08;14.20;99.90
41904;DHT22;27586;51.124;4.182;2023-06-04T02:56:35;14.10;99.90
41904;DHT22;27586;51.124;4.182;2023-06-04T02:59:01;14.00;99.90
41904;DHT22;27586;51.124;4.182;2023-06-04T03:01:27;14.00;99.90
41904;DHT22;27586;51.124;4.182;2023-06-04T03:03:54;14.00;99.90
41904;DHT22;27586;51.124;4.182;2023-06-04T03:06:23;14.00;99.90
41904;DHT22;27586;51.124;4.182;2023-06-04T03:08:49;14.00;99.90
41904;DHT22;27586;51.124;4.182;2023-06-04T03:11:16;14.00;99.90
41904;DHT22;27586;51.124;4.182;2023-06-04T03:13:42;13.90;99.90
41904;DHT22;27586;51.124;4.182;2023-06-04T03:16:07;13.80;99.90
41904;DHT22;27586;51.124;4.182;2023-06-04T03:18:36;13.90;99.90
41904;DHT22;27586;51.124;4.182;2023-06-04T03:21:06;13.90;99.90
41904;DHT22;27586;51.124;4.182;2023-06-04T03:23:33;13.80;99.90
41904;DHT22;27586;51.124;4.182;2023-06-04T03:26:00;13.80;99.90
41904;DHT22;27586;51.124;4.182;2023-06-04T03:28:26;13.80;99.90
41904;DHT22;27586;51.124;4.182;2023-06-04T03:30:51;13.90;99.90
41904;DHT22;27586;51.124;4.182;2023-06-04T03:33:17;13.90;99.90
41904;DHT22;27586;51.124;4.182;2023-06-04T03:35:43;13.80;99.90
41904;DHT22;27586;51.124;4.182;2023-06-04T03:38:08;13.90;99.90
41904;DHT22;27586;51.124;4.182;2023-06-04T03:40:34;13.90;99.90
41904;DHT22;27586;51.124;4.182;2023-06-04T03:43:00;13.90;99.90
41904;DHT22;27586;51.124;4.182;2023-06-04T03:45:26;13.90;99.90
41904;DHT22;27586;51.124;4.182;2023-06-04T03:47:51;13.90;99.90
41904;DHT22;27586;51.124;4.182;2023-06-04T03:50:18;13.70;99.90
41904;DHT22;27586;51.124;4.182;2023-06-04T03:52:44;13.80;99.90
41904;DHT22;27586;51.124;4.182;2023-06-04T03:55:10;13.80;99.90
41904;DHT22;27586;51.124;4.182;2023-06-04T03:57:36;13.80;99.90
41904;DHT22;27586;51.124;4.182;2023-06-04T04:00:05;13.80;99.90
41904;DHT22;27586;51.124;4.182;2023-06-04T04:02:31;13.80;99.90
41904;DHT22;27586;51.124;4.182;2023-06-04T04:04:57;13.70;99.90
41904;DHT22;27586;51.124;4.182;2023-06-04T04:07:23;13.60;99.90
41904;DHT22;27586;51.124;4.182;2023-06-04T04:09:50;13.70;99.90
41904;DHT22;27586;51.124;4.182;2023-06-04T04:12:16;13.70;99.90
41904;DHT22;27586;51.124;4.182;2023-06-04T04:14:42;13.60;99.90
41904;DHT22;27586;51.124;4.182;2023-06-04T04:17:08;13.70;99.90
41904;DHT22;27586;51.124;4.182;2023-06-04T04:19:33;13.70;99.90
41904;DHT22;27586;51.124;4.182;2023-06-04T04:21:59;13.70;99.90
41904;DHT22;27586;51.124;4.182;2023-06-04T04:24:26;13.60;99.90
41904;DHT22;27586;51.124;4.182;2023-06-04T04:26:53;13.70;99.90
41904;DHT22;27586;51.124;4.182;2023-06-04T04:29:22;13.70;99.90
41904;DHT22;27586;51.124;4.182;2023-06-04T04:31:50;13.70;99.90
41904;DHT22;27586;51.124;4.182;2023-06-04T04:34:16;13.70;99.90
41904;DHT22;27586;51.124;4.182;2023-06-04T04:36:43;13.70;99.90
41904;DHT22;27586;51.124;4.182;2023-06-04T04:39:10;13.60;99.90
41904;DHT22;27586;51.124;4.182;2023-06-04T04:41:37;13.60;99.90
41904;DHT22;27586;51.124;4.182;2023-06-04T04:44:03;13.60;99.90
41904;DHT22;27586;51.124;4.182;2023-06-04T04:46:32;13.60;99.90
41904;DHT22;27586;51.124;4.182;2023-06-04T04:48:58;13.70;99.90
41904;DHT22;27586;51.124;4.182;2023-06-04T04:51:23;13.70;99.90
41904;DHT22;27586;51.124;4.182;2023-06-04T04:53:49;13.70;99.90
41904;DHT22;27586;51.124;4.182;2023-06-04T04:56:15;13.70;99.90
41904;DHT22;27586;51.124;4.182;2023-06-04T04:58:40;13.70;99.90
41904;DHT22;27586;51.124;4.182;2023-06-04T05:01:07;13.80;99.90
41904;DHT22;27586;51.124;4.182;2023-06-04T05:03:33;13.90;99.90
41904;DHT22;27586;51.124;4.182;2023-06-04T05:05:58;13.90;99.90
41904;DHT22;27586;51.124;4.182;2023-06-04T05:08:24;14.00;99.90
41904;DHT22;27586;51.124;4.182;2023-06-04T05:10:50;14.00;99.90
41904;DHT22;27586;51.124;4.182;2023-06-04T05:13:16;14.10;99.90
41904;DHT22;27586;51.124;4.182;2023-06-04T05:15:45;14.00;99.90
41904;DHT22;27586;51.124;4.182;2023-06-04T05:18:13;14.00;99.90
41904;DHT22;27586;51.124;4.182;2023-06-04T05:20:41;14.10;99.90
41904;DHT22;27586;51.124;4.182;2023-06-04T05:23:08;14.20;99.90
41904;DHT22;27586;51.124;4.182;2023-06-04T05:25:34;14.20;99.90
41904;DHT22;27586;51.124;4.182;2023-06-04T05:28:00;14.40;99.90
41904;DHT22;27586;51.124;4.182;2023-06-04T05:30:26;14.20;99.90
41904;DHT22;27586;51.124;4.182;2023-06-04T05:32:51;14.30;99.90
41904;DHT22;27586;51.124;4.182;2023-06-04T05:35:18;14.40;99.90
41904;DHT22;27586;51.124;4.182;2023-06-04T05:37:44;14.50;99.90
41904;DHT22;27586;51.124;4.182;2023-06-04T05:40:11;14.70;99.90
41904;DHT22;27586;51.124;4.182;2023-06-04T05:42:38;14.70;99.90
41904;DHT22;27586;51.124;4.182;2023-06-04T05:45:05;14.80;99.90
41904;DHT22;27586;51.124;4.182;2023-06-04T05:47:31;14.70;99.90
41904;DHT22;27586;51.124;4.182;2023-06-04T05:49:57;14.70;99.90
41904;DHT22;27586;51.124;4.182;2023-06-04T05:52:23;14.80;99.90
41904;DHT22;27586;51.124;4.182;2023-06-04T05:54:49;14.90;99.90
41904;DHT22;27586;51.124;4.182;2023-06-04T05:57:14;15.10;99.90
41904;DHT22;27586;51.124;4.182;2023-06-04T05:59:40;15.10;99.90
41904;DHT22;27586;51.124;4.182;2023-06-04T06:02:06;15.20;99.90
41904;DHT22;27586;51.124;4.182;2023-06-04T06:04:32;15.20;99.90
41904;DHT22;27586;51.124;4.182;2023-06-04T06:06:58;15.30;99.90
41904;DHT22;27586;51.124;4.182;2023-06-04T06:09:24;15.30;99.90
41904;DHT22;27586;51.124;4.182;2023-06-04T06:11:49;15.30;99.90
41904;DHT22;27586;51.124;4.182;2023-06-04T06:14:15;15.30;99.90
41904;DHT22;27586;51.124;4.182;2023-06-04T06:16:41;15.50;99.90
41904;DHT22;27586;51.124;4.182;2023-06-04T06:19:06;15.70;99.90
41904;DHT22;27586;51.124;4.182;2023-06-04T06:21:32;15.80;99.90
41904;DHT22;27586;51.124;4.182;2023-06-04T06:23:58;15.80;99.90
41904;DHT22;27586;51.124;4.182;2023-06-04T06:26:24;15.90;99.90
41904;DHT22;27586;51.124;4.182;2023-06-04T06:28:50;16.00;99.90
41904;DHT22;27586;51.124;4.182;2023-06-04T06:31:16;16.00;99.90
41904;DHT22;27586;51.124;4.182;2023-06-04T06:33:42;16.30;99.90
41904;DHT22;27586;51.124;4.182;2023-06-04T06:36:10;16.40;99.90
41904;DHT22;27586;51.124;4.182;2023-06-04T06:38:39;16.50;99.60
41904;DHT22;27586;51.124;4.182;2023-06-04T06:41:06;16.60;99.90
41904;DHT22;27586;51.124;4.182;2023-06-04T06:43:32;16.70;99.70
41904;DHT22;27586;51.124;4.182;2023-06-04T06:45:58;16.90;99.90
41904;DHT22;27586;51.124;4.182;2023-06-04T06:48:24;17.00;99.00
41904;DHT22;27586;51.124;4.182;2023-06-04T06:50:50;17.00;99.10
41904;DHT22;27586;51.124;4.182;2023-06-04T06:53:16;16.90;99.90
41904;DHT22;27586;51.124;4.182;2023-06-04T06:55:41;17.10;99.10
41904;DHT22;27586;51.124;4.182;2023-06-04T06:58:07;17.20;98.80
41904;DHT22;27586;51.124;4.182;2023-06-04T07:00:33;17.40;98.60
41904;DHT22;27586;51.124;4.182;2023-06-04T07:02:58;17.50;97.80
41904;DHT22;27586;51.124;4.182;2023-06-04T07:05:24;17.50;98.50
41904;DHT22;27586;51.124;4.182;2023-06-04T07:07:49;17.60;97.40
41904;DHT22;27586;51.124;4.182;2023-06-04T07:10:15;17.70;96.80
41904;DHT22;27586;51.124;4.182;2023-06-04T07:12:41;17.60;96.30
41904;DHT22;27586;51.124;4.182;2023-06-04T07:15:07;17.70;96.30
41904;DHT22;27586;51.124;4.182;2023-06-04T07:17:34;17.90;96.50
41904;DHT22;27586;51.124;4.182;2023-06-04T07:20:00;18.10;97.10
41904;DHT22;27586;51.124;4.182;2023-06-04T07:22:26;18.30;96.90
41904;DHT22;27586;51.124;4.182;2023-06-04T07:24:51;18.50;97.00
41904;DHT22;27586;51.124;4.182;2023-06-04T07:27:18;18.80;96.80
41904;DHT22;27586;51.124;4.182;2023-06-04T07:29:44;18.70;95.20
41904;DHT22;27586;51.124;4.182;2023-06-04T07:32:10;18.90;94.80
41904;DHT22;27586;51.124;4.182;2023-06-04T07:34:38;19.00;94.60
41904;DHT22;27586;51.124;4.182;2023-06-04T07:37:04;19.10;94.00
41904;DHT22;27586;51.124;4.182;2023-06-04T07:39:30;19.20;94.10
41904;DHT22;27586;51.124;4.182;2023-06-04T07:41:56;19.30;94.10
41904;DHT22;27586;51.124;4.182;2023-06-04T07:44:22;19.20;93.80
41904;DHT22;27586;51.124;4.182;2023-06-04T07:46:47;19.10;92.50
41904;DHT22;27586;51.124;4.182;2023-06-04T07:49:14;19.30;92.20
41904;DHT22;27586;51.124;4.182;2023-06-04T07:51:39;19.30;92.30
41904;DHT22;27586;51.124;4.182;2023-06-04T07:54:05;19.40;91.50
41904;DHT22;27586;51.124;4.182;2023-06-04T07:56:31;19.40;91.00
41904;DHT22;27586;51.124;4.182;2023-06-04T07:58:57;19.50;91.20
41904;DHT22;27586;51.124;4.182;2023-06-04T08:01:22;19.70;90.80
41904;DHT22;27586;51.124;4.182;2023-06-04T08:03:49;19.70;89.90
41904;DHT22;27586;51.124;4.182;2023-06-04T08:06:15;19.70;90.60
41904;DHT22;27586;51.124;4.182;2023-06-04T08:08:45;20.00;90.10
41904;DHT22;27586;51.124;4.182;2023-06-04T08:11:11;20.00;85.40
41904;DHT22;27586;51.124;4.182;2023-06-04T08:13:38;20.00;85.80
41904;DHT22;27586;51.124;4.182;2023-06-04T08:16:04;20.20;88.10
41904;DHT22;27586;51.124;4.182;2023-06-04T08:18:30;20.30;86.90
41904;DHT22;27586;51.124;4.182;2023-06-04T08:20:55;20.40;85.70
41904;DHT22;27586;51.124;4.182;2023-06-04T08:23:21;20.60;86.50
41904;DHT22;27586;51.124;4.182;2023-06-04T08:25:47;20.60;84.10
41904;DHT22;27586;51.124;4.182;2023-06-04T08:28:16;20.30;82.80
41904;DHT22;27586;51.124;4.182;2023-06-04T08:30:45;20.50;83.10
41904;DHT22;27586;51.124;4.182;2023-06-04T08:33:11;20.80;84.80
41904;DHT22;27586;51.124;4.182;2023-06-04T08:35:36;20.90;82.30
41904;DHT22;27586;51.124;4.182;2023-06-04T08:38:02;20.90;83.10
41904;DHT22;27586;51.124;4.182;2023-06-04T08:40:28;21.10;81.60
41904;DHT22;27586;51.124;4.182;2023-06-04T08:42:55;21.30;82.80
41904;DHT22;27586;51.124;4.182;2023-06-04T08:45:24;21.40;80.40
41904;DHT22;27586;51.124;4.182;2023-06-04T08:47:51;21.50;79.50
41904;DHT22;27586;51.124;4.182;2023-06-04T08:50:18;21.20;77.70
41904;DHT22;27586;51.124;4.182;2023-06-04T08:52:45;21.30;81.00
41904;DHT22;27586;51.124;4.182;2023-06-04T08:55:12;21.60;78.60
41904;DHT22;27586;51.124;4.182;2023-06-04T08:57:40;21.50;76.40
41904;DHT22;27586;51.124;4.182;2023-06-04T09:00:06;21.50;77.50
41904;DHT22;27586;51.124;4.182;2023-06-04T09:02:35;21.60;77.30
41904;DHT22;27586;51.124;4.182;2023-06-04T09:05:04;21.70;76.70
41904;DHT22;27586;51.124;4.182;2023-06-04T09:07:30;21.90;78.90
41904;DHT22;27586;51.124;4.182;2023-06-04T09:09:58;22.00;73.90
41904;DHT22;27586;51.124;4.182;2023-06-04T09:12:25;22.00;75.00
41904;DHT22;27586;51.124;4.182;2023-06-04T09:14:51;22.20;73.50
41904;DHT22;27586;51.124;4.182;2023-06-04T09:17:23;22.40;73.40
41904;DHT22;27586;51.124;4.182;2023-06-04T09:19:50;22.00;72.10
41904;DHT22;27586;51.124;4.182;2023-06-04T09:22:16;22.40;73.10
41904;DHT22;27586;51.124;4.182;2023-06-04T09:24:43;22.50;72.60
41904;DHT22;27586;51.124;4.182;2023-06-04T09:27:16;22.30;72.90
41904;DHT22;27586;51.124;4.182;2023-06-04T09:29:53;22.30;72.10
41904;DHT22;27586;51.124;4.182;2023-06-04T09:32:26;22.40;73.40
41904;DHT22;27586;51.124;4.182;2023-06-04T09:34:56;22.50;71.70
41904;DHT22;27586;51.124;4.182;2023-06-04T09:37:23;22.60;73.50
41904;DHT22;27586;51.124;4.182;2023-06-04T09:39:55;22.60;73.30
41904;DHT22;27586;51.124;4.182;2023-06-04T09:42:27;22.70;70.20
41904;DHT22;27586;51.124;4.182;2023-06-04T09:44:52;22.80;72.90
41904;DHT22;27586;51.124;4.182;2023-06-04T09:47:18;22.90;71.50
41904;DHT22;27586;51.124;4.182;2023-06-04T09:49:45;23.00;70.30
41904;DHT22;27586;51.124;4.182;2023-06-04T09:52:11;23.00;69.00
41904;DHT22;27586;51.124;4.182;2023-06-04T09:54:41;22.90;66.40
41904;DHT22;27586;51.124;4.182;2023-06-04T09:57:17;22.70;67.40
41904;DHT22;27586;51.124;4.182;2023-06-04T09:59:49;22.80;69.80
41904;DHT22;27586;51.124;4.182;2023-06-04T10:02:21;23.10;67.10
41904;DHT22;27586;51.124;4.182;2023-06-04T10:04:55;23.20;67.40
41904;DHT22;27586;51.124;4.182;2023-06-04T10:07:25;23.30;69.00
41904;DHT22;27586;51.124;4.182;2023-06-04T10:09:52;23.10;68.50
41904;DHT22;27586;51.124;4.182;2023-06-04T10:12:25;23.40;69.60
41904;DHT22;27586;51.124;4.182;2023-06-04T10:14:55;23.50;65.80
41904;DHT22;27586;51.124;4.182;2023-06-04T10:17:22;23.40;65.30
41904;DHT22;27586;51.124;4.182;2023-06-04T10:19:50;23.30;66.20
41904;DHT22;27586;51.124;4.182;2023-06-04T10:22:19;23.60;69.50
41904;DHT22;27586;51.124;4.182;2023-06-04T10:24:45;23.60;65.30
41904;DHT22;27586;51.124;4.182;2023-06-04T10:27:12;23.50;64.70
41904;DHT22;27586;51.124;4.182;2023-06-04T10:29:39;23.10;66.00
41904;DHT22;27586;51.124;4.182;2023-06-04T10:32:05;23.10;63.60
41904;DHT22;27586;51.124;4.182;2023-06-04T10:34:31;23.20;65.90
41904;DHT22;27586;51.124;4.182;2023-06-04T10:36:58;23.50;65.40
41904;DHT22;27586;51.124;4.182;2023-06-04T10:39:28;23.60;66.30
41904;DHT22;27586;51.124;4.182;2023-06-04T10:42:01;23.60;64.50
41904;DHT22;27586;51.124;4.182;2023-06-04T10:44:46;23.40;66.00
41904;DHT22;27586;51.124;4.182;2023-06-04T10:47:22;23.60;64.60
41904;DHT22;27586;51.124;4.182;2023-06-04T10:49:50;23.60;62.60
41904;DHT22;27586;51.124;4.182;2023-06-04T10:52:17;23.60;62.90
41904;DHT22;27586;51.124;4.182;2023-06-04T10:54:47;23.60;64.80
41904;DHT22;27586;51.124;4.182;2023-06-04T10:57:17;23.80;65.70
41904;DHT22;27586;51.124;4.182;2023-06-04T10:59:56;23.80;63.00
41904;DHT22;27586;51.124;4.182;2023-06-04T11:02:22;24.10;66.10
41904;DHT22;27586;51.124;4.182;2023-06-04T11:05:02;24.10;65.10
41904;DHT22;27586;51.124;4.182;2023-06-04T11:07:44;23.90;62.50
41904;DHT22;27586;51.124;4.182;2023-06-04T11:10:11;24.10;64.60
41904;DHT22;27586;51.124;4.182;2023-06-04T11:12:45;24.20;63.20
41904;DHT22;27586;51.124;4.182;2023-06-04T11:15:12;24.40;66.70
41904;DHT22;27586;51.124;4.182;2023-06-04T11:17:42;24.40;62.80
41904;DHT22;27586;51.124;4.182;2023-06-04T11:20:18;24.40;62.60
41904;DHT22;27586;51.124;4.182;2023-06-04T11:22:53;24.10;61.40
41904;DHT22;27586;51.124;4.182;2023-06-04T11:25:19;24.40;60.60
41904;DHT22;27586;51.124;4.182;2023-06-04T11:27:48;24.70;61.90
41904;DHT22;27586;51.124;4.182;2023-06-04T11:30:14;24.50;58.90
41904;DHT22;27586;51.124;4.182;2023-06-04T11:32:40;24.40;60.70
41904;DHT22;27586;51.124;4.182;2023-06-04T11:35:06;24.30;60.80
41904;DHT22;27586;51.124;4.182;2023-06-04T11:37:31;24.50;60.80
41904;DHT22;27586;51.124;4.182;2023-06-04T11:39:58;24.60;61.40
41904;DHT22;27586;51.124;4.182;2023-06-04T11:42:24;24.60;59.00
41904;DHT22;27586;51.124;4.182;2023-06-04T11:44:58;24.40;60.00
41904;DHT22;27586;51.124;4.182;2023-06-04T11:47:24;24.40;61.40
41904;DHT22;27586;51.124;4.182;2023-06-04T11:49:56;24.20;59.60
41904;DHT22;27586;51.124;4.182;2023-06-04T11:52:22;24.20;60.00
41904;DHT22;27586;51.124;4.182;2023-06-04T11:54:48;24.30;62.60
41904;DHT22;27586;51.124;4.182;2023-06-04T11:57:14;24.40;61.00
41904;DHT22;27586;51.124;4.182;2023-06-04T11:59:41;24.50;61.60
41904;DHT22;27586;51.124;4.182;2023-06-04T12:02:07;24.40;61.70
41904;DHT22;27586;51.124;4.182;2023-06-04T12:04:33;24.70;61.40
41904;DHT22;27586;51.124;4.182;2023-06-04T12:07:00;24.60;60.90
41904;DHT22;27586;51.124;4.182;2023-06-04T12:09:32;24.60;60.30
41904;DHT22;27586;51.124;4.182;2023-06-04T12:12:05;24.40;61.40
41904;DHT22;27586;51.124;4.182;2023-06-04T12:14:31;24.50;57.20
41904;DHT22;27586;51.124;4.182;2023-06-04T12:16:58;24.60;60.20
41904;DHT22;27586;51.124;4.182;2023-06-04T12:19:25;24.60;63.00
41904;DHT22;27586;51.124;4.182;2023-06-04T12:22:05;24.80;59.80
41904;DHT22;27586;51.124;4.182;2023-06-04T12:24:55;24.70;59.90
41904;DHT22;27586;51.124;4.182;2023-06-04T12:27:24;24.60;61.60
41904;DHT22;27586;51.124;4.182;2023-06-04T12:30:03;24.80;60.50
41904;DHT22;27586;51.124;4.182;2023-06-04T12:32:29;24.70;62.80
41904;DHT22;27586;51.124;4.182;2023-06-04T12:34:55;24.70;61.20
41904;DHT22;27586;51.124;4.182;2023-06-04T12:37:24;24.40;59.00
41904;DHT22;27586;51.124;4.182;2023-06-04T12:39:53;24.50;61.60
41904;DHT22;27586;51.124;4.182;2023-06-04T12:42:20;24.60;62.00
41904;DHT22;27586;51.124;4.182;2023-06-04T12:44:46;24.80;62.60
41904;DHT22;27586;51.124;4.182;2023-06-04T12:47:12;24.80;63.10
41904;DHT22;27586;51.124;4.182;2023-06-04T12:49:38;24.20;59.70
41904;DHT22;27586;51.124;4.182;2023-06-04T12:52:04;24.40;62.30
41904;DHT22;27586;51.124;4.182;2023-06-04T12:54:30;24.40;60.20
41904;DHT22;27586;51.124;4.182;2023-06-04T12:56:56;24.60;61.50
41904;DHT22;27586;51.124;4.182;2023-06-04T12:59:23;24.60;62.80
41904;DHT22;27586;51.124;4.182;2023-06-04T13:01:50;24.60;59.80
41904;DHT22;27586;51.124;4.182;2023-06-04T13:04:15;24.50;60.60
41904;DHT22;27586;51.124;4.182;2023-06-04T13:06:41;24.20;60.00
41904;DHT22;27586;51.124;4.182;2023-06-04T13:09:07;24.30;62.80
41904;DHT22;27586;51.124;4.182;2023-06-04T13:11:38;24.40;60.90
41904;DHT22;27586;51.124;4.182;2023-06-04T13:14:04;24.50;61.50
41904;DHT22;27586;51.124;4.182;2023-06-04T13:16:30;24.60;60.30
41904;DHT22;27586;51.124;4.182;2023-06-04T13:18:55;24.70;62.20
41904;DHT22;27586;51.124;4.182;2023-06-04T13:21:21;24.50;60.00
41904;DHT22;27586;51.124;4.182;2023-06-04T13:23:47;24.30;60.70
41904;DHT22;27586;51.124;4.182;2023-06-04T13:26:12;24.40;61.60
41904;DHT22;27586;51.124;4.182;2023-06-04T13:28:38;24.60;62.10
41904;DHT22;27586;51.124;4.182;2023-06-04T13:31:04;24.80;62.20
41904;DHT22;27586;51.124;4.182;2023-06-04T13:33:30;24.90;61.80
41904;DHT22;27586;51.124;4.182;2023-06-04T13:35:56;24.80;61.70
41904;DHT22;27586;51.124;4.182;2023-06-04T13:38:21;24.90;62.40
41904;DHT22;27586;51.124;4.182;2023-06-04T13:40:47;24.90;60.80
41904;DHT22;27586;51.124;4.182;2023-06-04T13:43:12;24.70;61.60
41904;DHT22;27586;51.124;4.182;2023-06-04T13:45:39;24.80;63.30
41904;DHT22;27586;51.124;4.182;2023-06-04T13:48:05;24.90;62.60
41904;DHT22;27586;51.124;4.182;2023-06-04T13:50:33;24.80;61.00
41904;DHT22;27586;51.124;4.182;2023-06-04T13:52:59;24.70;59.70
41904;DHT22;27586;51.124;4.182;2023-06-04T13:55:25;24.80;61.90
41904;DHT22;27586;51.124;4.182;2023-06-04T13:57:51;24.80;61.00
41904;DHT22;27586;51.124;4.182;2023-06-04T14:00:16;24.80;60.50
41904;DHT22;27586;51.124;4.182;2023-06-04T14:02:42;24.90;61.70
41904;DHT22;27586;51.124;4.182;2023-06-04T14:05:08;25.00;62.50
41904;DHT22;27586;51.124;4.182;2023-06-04T14:07:34;24.70;60.20
41904;DHT22;27586;51.124;4.182;2023-06-04T14:10:00;24.60;62.80
41904;DHT22;27586;51.124;4.182;2023-06-04T14:12:26;24.50;61.90
41904;DHT22;27586;51.124;4.182;2023-06-04T14:14:51;24.50;61.40
41904;DHT22;27586;51.124;4.182;2023-06-04T14:17:17;24.40;60.00
41904;DHT22;27586;51.124;4.182;2023-06-04T14:19:43;24.40;62.20
41904;DHT22;27586;51.124;4.182;2023-06-04T14:22:10;24.50;61.60
41904;DHT22;27586;51.124;4.182;2023-06-04T14:24:37;24.50;60.60
41904;DHT22;27586;51.124;4.182;2023-06-04T14:27:03;24.80;61.90
41904;DHT22;27586;51.124;4.182;2023-06-04T14:29:29;24.90;61.80
41904;DHT22;27586;51.124;4.182;2023-06-04T14:31:55;24.80;62.00
41904;DHT22;27586;51.124;4.182;2023-06-04T14:34:21;24.90;62.80
41904;DHT22;27586;51.124;4.182;2023-06-04T14:36:46;25.00;61.80
41904;DHT22;27586;51.124;4.182;2023-06-04T14:39:12;24.90;61.20
41904;DHT22;27586;51.124;4.182;2023-06-04T14:41:38;24.70;62.30
41904;DHT22;27586;51.124;4.182;2023-06-04T14:44:04;24.70;60.50
41904;DHT22;27586;51.124;4.182;2023-06-04T14:46:29;24.80;61.90
41904;DHT22;27586;51.124;4.182;2023-06-04T14:48:55;24.70;60.70
41904;DHT22;27586;51.124;4.182;2023-06-04T14:51:21;24.50;61.70
41904;DHT22;27586;51.124;4.182;2023-06-04T14:53:48;24.40;62.50
41904;DHT22;27586;51.124;4.182;2023-06-04T14:56:14;24.50;63.00
41904;DHT22;27586;51.124;4.182;2023-06-04T14:58:39;24.50;61.60
41904;DHT22;27586;51.124;4.182;2023-06-04T15:01:05;24.40;61.40
41904;DHT22;27586;51.124;4.182;2023-06-04T15:03:32;24.50;61.80
41904;DHT22;27586;51.124;4.182;2023-06-04T15:05:58;24.50;61.30
41904;DHT22;27586;51.124;4.182;2023-06-04T15:08:23;24.50;59.20
41904;DHT22;27586;51.124;4.182;2023-06-04T15:10:49;24.40;59.80
41904;DHT22;27586;51.124;4.182;2023-06-04T15:13:15;24.40;60.50
41904;DHT22;27586;51.124;4.182;2023-06-04T15:15:40;24.40;59.70
41904;DHT22;27586;51.124;4.182;2023-06-04T15:18:06;24.40;60.00
41904;DHT22;27586;51.124;4.182;2023-06-04T15:20:32;24.50;61.40
41904;DHT22;27586;51.124;4.182;2023-06-04T15:22:58;24.70;60.00
41904;DHT22;27586;51.124;4.182;2023-06-04T15:25:24;24.60;61.60
41904;DHT22;27586;51.124;4.182;2023-06-04T15:27:50;24.30;59.40
41904;DHT22;27586;51.124;4.182;2023-06-04T15:30:16;24.30;60.80
41904;DHT22;27586;51.124;4.182;2023-06-04T15:32:43;24.20;61.00
41904;DHT22;27586;51.124;4.182;2023-06-04T15:35:09;24.30;60.00